Time;durP1;ratioP1;P1;durP2;ratioP2;P2;SDS_P1;SDS_P2;PMS_P1;PMS_P2;Temp;Humidity;BMP_temperature;BMP_pressure;BME280_temperature;BME280_humidity;BME280_pressure;Samples;Min_cycle;Max_cycle;Signal;HPM_P1;HPM_P2
2023/04/09 00:00:20;;;;;;;;;;;;;;;-140.72;100.00;52918.47;5031312;28;19924;-72
2023/04/09 00:02:45;;;;;;;;;;;;;;;-140.72;100.00;52902.22;5036921;28;19986;-73
2023/04/09 00:05:11;;;;;;;;;;;;;;;-140.72;100.00;52904.25;5046450;28;19953;-73
2023/04/09 00:07:36;;;;;;;;;;;;;;;-140.72;100.00;52928.63;5031206;28;20375;-73
2023/04/09 00:10:01;;;;;;;;;;;;;;;-140.72;100.00;52904.25;5032578;28;19922;-72
2023/04/09 00:12:26;;;;;;;;;;;;;;;-140.72;100.00;52928.63;5028178;28;20402;-72
2023/04/09 00:14:51;;;;;;;;;;;;;;;-140.72;100.00;52908.31;5031277;28;19917;-73
2023/04/09 00:17:17;;;;;;;;;;;;;;;-140.72;100.00;52932.66;5048033;28;19975;-71
2023/04/09 00:19:42;;;;;;;;;;;;;;;-140.72;100.00;52910.34;5102035;27;19964;-72
2023/04/09 00:22:07;;;;;;;;;;;;;;;-140.72;100.00;52973.25;5037195;27;19928;-72
2023/04/09 00:24:32;;;;;;;;;;;;;;;-140.72;100.00;52916.44;5031166;28;19923;-72
2023/04/09 00:26:57;;;;;;;;;;;;;;;-140.72;100.00;52912.38;5029615;28;19918;-72
2023/04/09 00:29:23;;;;;;;;;;;;;;;-140.72;100.00;52906.28;5027204;28;20008;-72
2023/04/09 00:31:55;;;;;;;;;;;;;;;-140.72;100.00;52900.19;5023487;28;19968;-72
2023/04/09 00:34:20;;;;;;;;;;;;;;;-140.72;100.00;52894.13;5035239;28;20275;-72
2023/04/09 00:36:53;;;;;;;;;;;;;;;-140.72;100.00;52914.41;5027654;28;19918;-72
2023/04/09 00:39:18;;;;;;;;;;;;;;;-140.72;100.00;52894.13;5034324;28;19918;-72
2023/04/09 00:41:43;;;;;;;;;;;;;;;-140.72;100.00;52900.19;5026500;27;20275;-72
2023/04/09 00:44:09;;;;;;;;;;;;;;;-140.72;100.00;52938.75;5018879;28;19983;-72
2023/04/09 00:46:34;;;;;;;;;;;;;;;-140.72;100.00;52944.84;5028316;28;19925;-72
2023/04/09 00:48:59;;;;;;;;;;;;;;;-140.72;100.00;52932.66;5028602;28;19925;-73
2023/04/09 00:51:25;;;;;;;;;;;;;;;-140.72;100.00;52928.63;5032098;28;19917;-72
2023/04/09 00:53:51;;;;;;;;;;;;;;;-140.72;100.00;52930.66;5024529;28;19930;-72
2023/04/09 00:56:17;;;;;;;;;;;;;;;-140.72;100.00;52894.13;5025952;28;19925;-72
2023/04/09 00:58:42;;;;;;;;;;;;;;;-140.72;100.00;52918.47;5049291;28;19930;-72
2023/04/09 01:01:08;;;;;;;;;;;;;;;-140.72;100.00;52902.22;5017561;28;19925;-71
2023/04/09 01:03:33;;;;;;;;;;;;;;;-140.72;100.00;52926.59;5027398;28;19925;-74
2023/04/09 01:05:58;;;;;;;;;;;;;;;-140.72;100.00;52928.63;5018036;28;19996;-72
2023/04/09 01:08:30;;;;;;;;;;;;;;;-140.72;100.00;52934.69;5031758;28;19925;-72
2023/04/09 01:11:19;;;;;;;;;;;;;;;-140.72;100.00;52894.13;5027753;28;19927;-72
2023/04/09 01:13:46;;;;;;;;;;;;;;;-140.72;100.00;52914.41;5020746;28;22692;-72
2023/04/09 01:16:13;;;;;;;;;;;;;;;-140.72;100.00;52975.28;5033858;28;19941;-73
2023/04/09 01:18:50;;;;;;;;;;;;;;;-140.72;100.00;52938.75;5035775;27;19991;-72
2023/04/09 01:21:18;;;;;;;;;;;;;;;-140.72;100.00;52908.31;5032950;27;19964;-72
2023/04/09 01:23:53;;;;;;;;;;;;;;;-140.72;100.00;52967.16;5030134;28;19917;-72
2023/04/09 01:26:21;;;;;;;;;;;;;;;-140.72;100.00;52930.66;5030305;28;20008;-73
2023/04/09 01:28:50;;;;;;;;;;;;;;;-140.72;100.00;52959.06;5025205;28;19993;-73
2023/04/09 01:31:20;;;;;;;;;;;;;;;-140.72;100.00;52946.88;5029430;28;19964;-73
2023/04/09 01:33:45;;;;;;;;;;;;;;;-140.72;100.00;52959.06;5017663;27;19918;-72
2023/04/09 01:36:12;;;;;;;;;;;;;;;-140.72;100.00;52936.72;5081092;27;20039;-72
2023/04/09 01:38:41;;;;;;;;;;;;;;;-140.72;100.00;52948.91;5033220;28;19917;-72
2023/04/09 01:41:07;;;;;;;;;;;;;;;-140.72;100.00;52938.75;5020455;28;19917;-72
2023/04/09 01:43:33;;;;;;;;;;;;;;;-140.72;100.00;52924.56;5028869;28;20007;-72
2023/04/09 01:46:00;;;;;;;;;;;;;;;-140.72;100.00;52940.78;5010403;28;19967;-71
2023/04/09 01:48:26;;;;;;;;;;;;;;;-140.72;100.00;52922.53;5029135;28;19917;-73
2023/04/09 01:50:51;;;;;;;;;;;;;;;-140.72;100.00;52936.72;5048111;28;19921;-73
2023/04/09 01:53:17;;;;;;;;;;;;;;;-140.72;100.00;52946.88;5027453;28;19957;-72
2023/04/09 01:55:42;;;;;;;;;;;;;;;-140.72;100.00;52904.25;5027655;28;20001;-72
2023/04/09 01:58:07;;;;;;;;;;;;;;;-140.72;100.00;52928.63;5031806;28;19921;-73
2023/04/09 02:00:38;;;;;;;;;;;;;;;-140.72;100.00;52924.56;5027988;28;19917;-72
2023/04/09 02:03:21;;;;;;;;;;;;;;;-140.72;100.00;52928.63;5031769;28;19928;-72
2023/04/09 02:05:54;;;;;;;;;;;;;;;-140.72;100.00;52879.91;5027787;28;20895;-72
2023/04/09 02:08:20;;;;;;;;;;;;;;;-140.72;100.00;52940.78;5037505;28;19924;-72
2023/04/09 02:10:52;;;;;;;;;;;;;;;-140.72;100.00;52898.16;5030320;28;19922;-72
2023/04/09 02:13:17;;;;;;;;;;;;;;;-140.72;100.00;52892.09;5020100;28;19961;-73
2023/04/09 02:15:44;;;;;;;;;;;;;;;-140.72;100.00;52902.22;5024665;28;19949;-73
2023/04/09 02:18:19;;;;;;;;;;;;;;;-140.72;100.00;52906.28;5028680;28;19917;-72
2023/04/09 02:20:45;;;;;;;;;;;;;;;-140.72;100.00;52900.19;5022181;28;20341;-72
2023/04/09 02:23:13;;;;;;;;;;;;;;;-140.72;100.00;52914.41;5028792;28;19921;-73
2023/04/09 02:25:38;;;;;;;;;;;;;;;-140.72;100.00;52926.59;5029885;28;19917;-72
2023/04/09 02:28:04;;;;;;;;;;;;;;;-140.72;100.00;52906.28;5029249;28;20371;-72
2023/04/09 02:30:29;;;;;;;;;;;;;;;-140.72;100.00;52879.91;5022644;28;19928;-72
2023/04/09 02:32:54;;;;;;;;;;;;;;;-140.72;100.00;52873.81;5026209;28;19922;-72
2023/04/09 02:35:19;;;;;;;;;;;;;;;-140.72;100.00;52861.66;5028975;28;19924;-71
2023/04/09 02:37:45;;;;;;;;;;;;;;;-140.72;100.00;52881.94;5019684;28;20608;-72
2023/04/09 02:40:10;;;;;;;;;;;;;;;-140.72;100.00;52883.97;5028036;28;19917;-72
2023/04/09 02:42:35;;;;;;;;;;;;;;;-140.72;100.00;52924.56;5029283;28;20355;-73
2023/04/09 02:45:00;;;;;;;;;;;;;;;-140.72;100.00;52881.94;5024960;28;20584;-72
2023/04/09 02:47:26;;;;;;;;;;;;;;;-140.72;100.00;52879.91;5029705;28;20379;-72
2023/04/09 02:49:51;;;;;;;;;;;;;;;-140.72;100.00;52890.06;5028931;28;20290;-72
2023/04/09 02:52:19;;;;;;;;;;;;;;;-140.72;100.00;52879.91;5023712;28;19918;-72
2023/04/09 02:54:44;;;;;;;;;;;;;;;-140.72;100.00;52886.00;5021114;28;19918;-72
2023/04/09 02:57:09;;;;;;;;;;;;;;;-140.72;100.00;52877.88;5028384;28;20015;-73
2023/04/09 02:59:37;;;;;;;;;;;;;;;-140.72;100.00;52902.22;5025421;28;19925;-72
2023/04/09 03:02:03;;;;;;;;;;;;;;;-140.72;100.00;52877.88;5017666;28;19960;-72
2023/04/09 03:04:28;;;;;;;;;;;;;;;-140.72;100.00;52881.94;5025008;28;19936;-73
2023/04/09 03:06:53;;;;;;;;;;;;;;;-140.72;100.00;52873.81;5028618;28;19928;-72
2023/04/09 03:09:18;;;;;;;;;;;;;;;-140.72;100.00;52865.69;5024606;28;19925;-72
2023/04/09 03:11:43;;;;;;;;;;;;;;;-140.72;100.00;52867.72;5029527;28;19928;-71
2023/04/09 03:14:09;;;;;;;;;;;;;;;-140.72;100.00;52890.06;5051938;28;20295;-72
2023/04/09 03:16:34;;;;;;;;;;;;;;;-140.72;100.00;52869.75;5019959;28;20334;-72
2023/04/09 03:18:59;;;;;;;;;;;;;;;-140.72;100.00;52888.03;5029669;28;19921;-72
2023/04/09 03:21:25;;;;;;;;;;;;;;;-140.72;100.00;52890.06;5032343;28;19969;-72
2023/04/09 03:23:51;;;;;;;;;;;;;;;-140.72;100.00;52861.66;5030825;28;19967;-72
2023/04/09 03:26:16;;;;;;;;;;;;;;;-140.72;100.00;52888.03;5031861;28;19966;-72
2023/04/09 03:28:41;;;;;;;;;;;;;;;-140.72;100.00;52861.66;5027308;28;19986;-71
2023/04/09 03:31:06;;;;;;;;;;;;;;;-140.72;100.00;52865.69;5112123;27;19917;-72
2023/04/09 03:33:31;;;;;;;;;;;;;;;-140.72;100.00;52886.00;5052032;27;19921;-72
2023/04/09 03:35:57;;;;;;;;;;;;;;;-140.72;100.00;52851.50;5022774;27;19924;-72
2023/04/09 03:38:22;;;;;;;;;;;;;;;-140.72;100.00;52865.69;5031940;28;19955;-73
2023/04/09 03:40:47;;;;;;;;;;;;;;;-140.72;100.00;52881.94;5029348;28;19940;-72
2023/04/09 03:43:12;;;;;;;;;;;;;;;-140.72;100.00;52873.81;5017336;28;19998;-72
2023/04/09 03:45:38;;;;;;;;;;;;;;;-140.72;100.00;52861.66;5031883;28;19921;-72
2023/04/09 03:48:03;;;;;;;;;;;;;;;-140.72;100.00;52829.19;5042173;27;19917;-72
2023/04/09 03:50:28;;;;;;;;;;;;;;;-140.72;100.00;52859.63;5028455;28;19962;-73
2023/04/09 03:52:53;;;;;;;;;;;;;;;-140.72;100.00;52853.53;5038377;28;19921;-73
2023/04/09 03:55:19;;;;;;;;;;;;;;;-140.72;100.00;52890.06;5032376;28;20004;-71
2023/04/09 03:57:44;;;;;;;;;;;;;;;-140.72;100.00;52851.50;5033809;28;19964;-72
2023/04/09 04:00:09;;;;;;;;;;;;;;;-140.72;100.00;52883.97;5036864;28;20344;-72
2023/04/09 04:02:35;;;;;;;;;;;;;;;-140.72;100.00;52867.72;5032802;28;20378;-72
2023/04/09 04:05:00;;;;;;;;;;;;;;;-140.72;100.00;52853.53;5031143;28;19998;-72
2023/04/09 04:07:26;;;;;;;;;;;;;;;-140.72;100.00;52847.44;5033121;28;20360;-73
2023/04/09 04:09:51;;;;;;;;;;;;;;;-140.72;100.00;52857.59;5029738;28;20447;-72
2023/04/09 04:12:16;;;;;;;;;;;;;;;-140.72;100.00;52861.66;5021207;28;19921;-73
2023/04/09 04:14:41;;;;;;;;;;;;;;;-140.72;100.00;52881.94;5028728;28;20012;-72
2023/04/09 04:17:06;;;;;;;;;;;;;;;-140.72;100.00;52879.91;5021398;28;19917;-72
2023/04/09 04:19:32;;;;;;;;;;;;;;;-140.72;100.00;52851.50;5025369;28;19925;-72
2023/04/09 04:21:57;;;;;;;;;;;;;;;-140.72;100.00;52857.59;5030009;28;20385;-72
2023/04/09 04:24:22;;;;;;;;;;;;;;;-140.72;100.00;52865.69;5029943;28;19979;-72
2023/04/09 04:26:47;;;;;;;;;;;;;;;-140.72;100.00;52877.88;5031782;28;20339;-73
2023/04/09 04:29:12;;;;;;;;;;;;;;;-140.72;100.00;52861.66;5021241;28;20703;-72
2023/04/09 04:31:38;;;;;;;;;;;;;;;-140.72;100.00;52851.50;5031672;28;19993;-72
2023/04/09 04:34:03;;;;;;;;;;;;;;;-140.72;100.00;52861.66;5088580;27;19948;-73
2023/04/09 04:36:28;;;;;;;;;;;;;;;-140.72;100.00;52851.50;5039507;28;19970;-72
2023/04/09 04:38:53;;;;;;;;;;;;;;;-140.72;100.00;52863.66;5030891;28;20328;-73
2023/04/09 04:41:19;;;;;;;;;;;;;;;-140.72;100.00;52845.41;5029340;28;20375;-72
2023/04/09 04:43:45;;;;;;;;;;;;;;;-140.72;100.00;52890.06;5027476;28;19917;-72
2023/04/09 04:46:11;;;;;;;;;;;;;;;-140.72;100.00;52847.44;5039189;27;19917;-72
2023/04/09 04:48:36;;;;;;;;;;;;;;;-140.72;100.00;52812.94;5030612;28;19919;-71
2023/04/09 04:51:07;;;;;;;;;;;;;;;-140.72;100.00;52886.00;5019327;28;20031;-71
2023/04/09 04:53:37;;;;;;;;;;;;;;;-140.72;100.00;52863.66;5011044;28;20280;-71
2023/04/09 04:56:02;;;;;;;;;;;;;;;-140.72;100.00;52890.06;5024589;28;19929;-72
2023/04/09 05:01:30;;;;;;;;;;;;;;;-140.72;100.00;52863.66;5026935;28;20418;-71
2023/04/09 05:03:55;;;;;;;;;;;;;;;-140.72;100.00;52898.16;5027115;28;19965;-72
2023/04/09 05:06:20;;;;;;;;;;;;;;;-140.72;100.00;52871.78;5032716;28;19921;-71
2023/04/09 05:08:46;;;;;;;;;;;;;;;-140.72;100.00;52879.91;5031670;28;20428;-71
2023/04/09 05:11:11;;;;;;;;;;;;;;;-140.72;100.00;52892.09;5024206;28;19928;-71
2023/04/09 05:13:37;;;;;;;;;;;;;;;-140.72;100.00;52883.97;5031714;28;19917;-71
2023/04/09 05:16:02;;;;;;;;;;;;;;;-140.72;100.00;52849.47;5026456;28;19943;-71
2023/04/09 05:18:27;;;;;;;;;;;;;;;-140.72;100.00;52883.97;5027967;28;19917;-71
2023/04/09 05:20:53;;;;;;;;;;;;;;;-140.72;100.00;52831.19;5030735;28;19917;-71
2023/04/09 05:23:18;;;;;;;;;;;;;;;-140.72;100.00;52871.78;5024310;28;19921;-72
2023/04/09 05:25:43;;;;;;;;;;;;;;;-140.72;100.00;52823.09;5025856;28;19917;-71
2023/04/09 05:28:10;;;;;;;;;;;;;;;-140.72;100.00;52835.25;5019546;28;19924;-71
2023/04/09 05:30:35;;;;;;;;;;;;;;;-140.72;100.00;52894.13;5067165;28;19925;-71
2023/04/09 05:33:00;;;;;;;;;;;;;;;-140.72;100.00;52845.41;5031272;28;20299;-72
2023/04/09 05:35:52;;;;;;;;;;;;;;;-140.72;100.00;52871.78;5027196;28;19917;-71
2023/04/09 05:38:17;;;;;;;;;;;;;;;-140.72;100.00;52886.00;5027998;28;19962;-71
2023/04/09 05:40:44;;;;;;;;;;;;;;;-140.72;100.00;52869.75;5016579;28;19919;-72
2023/04/09 05:43:09;;;;;;;;;;;;;;;-140.72;100.00;52837.28;5028815;28;19921;-71
2023/04/09 05:45:34;;;;;;;;;;;;;;;-140.72;100.00;52865.69;5029639;28;20283;-72
2023/04/09 05:48:00;;;;;;;;;;;;;;;-140.72;100.00;52839.31;5034011;28;20448;-72
2023/04/09 05:50:25;;;;;;;;;;;;;;;-140.72;100.00;52881.94;5028364;28;20363;-71
2023/04/09 05:52:50;;;;;;;;;;;;;;;-140.72;100.00;52851.50;5029334;28;20019;-75
2023/04/09 05:55:16;;;;;;;;;;;;;;;-140.72;100.00;52817.00;5076802;28;19917;-72
2023/04/09 05:57:42;;;;;;;;;;;;;;;-140.72;100.00;52871.78;5016648;28;19925;-72
2023/04/09 06:00:08;;;;;;;;;;;;;;;-140.72;100.00;52888.03;5029190;28;19917;-72
2023/04/09 06:02:33;;;;;;;;;;;;;;;-140.72;100.00;52875.84;5030603;28;20276;-74
2023/04/09 06:04:58;;;;;;;;;;;;;;;-140.72;100.00;52849.47;5034754;28;19921;-72
2023/04/09 06:07:24;;;;;;;;;;;;;;;-140.72;100.00;52837.28;5027826;28;19932;-72
2023/04/09 06:09:49;;;;;;;;;;;;;;;-140.72;100.00;52847.44;5044618;28;19923;-72
2023/04/09 06:12:14;;;;;;;;;;;;;;;-140.72;100.00;52843.38;5029659;28;19960;-72
2023/04/09 06:14:40;;;;;;;;;;;;;;;-140.72;100.00;52831.19;5030029;28;19925;-72
2023/04/09 06:17:05;;;;;;;;;;;;;;;-140.72;100.00;52855.56;5026498;28;19931;-79
2023/04/09 06:19:43;;;;;;;;;;;;;;;-140.72;100.00;52829.19;5028645;28;19917;-72
2023/04/09 06:22:09;;;;;;;;;;;;;;;-140.72;100.00;52853.53;5025501;28;19949;-71
2023/04/09 06:24:35;;;;;;;;;;;;;;;-140.72;100.00;52837.28;5014440;28;19925;-72
2023/04/09 06:27:00;;;;;;;;;;;;;;;-140.72;100.00;52825.13;5023094;28;20279;-71
2023/04/09 06:29:26;;;;;;;;;;;;;;;-140.72;100.00;52869.75;5029022;28;19960;-74
2023/04/09 06:31:51;;;;;;;;;;;;;;;-140.72;100.00;52837.28;5030781;28;20000;-71
2023/04/09 06:34:25;;;;;;;;;;;;;;;-140.72;100.00;52829.19;5021866;28;19947;-72
2023/04/09 06:36:50;;;;;;;;;;;;;;;-140.72;100.00;52845.41;5019285;28;19918;-72
2023/04/09 06:39:15;;;;;;;;;;;;;;;-140.72;100.00;52865.69;5024851;28;19928;-72
2023/04/09 06:41:41;;;;;;;;;;;;;;;-140.72;100.00;52831.19;5022304;28;19926;-71
2023/04/09 06:44:06;;;;;;;;;;;;;;;-140.72;100.00;52853.53;5029487;28;20379;-71
2023/04/09 06:46:31;;;;;;;;;;;;;;;-140.72;100.00;52843.38;5024374;28;19926;-72
2023/04/09 06:49:01;;;;;;;;;;;;;;;-140.72;100.00;52829.19;5026749;28;19971;-72
2023/04/09 06:51:27;;;;;;;;;;;;;;;-140.72;100.00;52821.06;5028617;28;19921;-72
2023/04/09 06:53:52;;;;;;;;;;;;;;;-140.72;100.00;52817.00;5041973;28;19939;-73
2023/04/09 06:56:17;;;;;;;;;;;;;;;-140.72;100.00;52859.63;5026009;28;20268;-73
2023/04/09 06:58:43;;;;;;;;;;;;;;;-140.72;100.00;52825.13;5027827;28;19918;-72
2023/04/09 07:01:08;;;;;;;;;;;;;;;-140.72;100.00;52831.19;5023516;28;19925;-73
2023/04/09 07:03:33;;;;;;;;;;;;;;;-140.72;100.00;52819.03;5033276;28;19922;-72
2023/04/09 07:05:59;;;;;;;;;;;;;;;-140.72;100.00;52829.19;5031946;28;20407;-71
2023/04/09 07:08:24;;;;;;;;;;;;;;;-140.72;100.00;52833.22;5025447;28;19927;-72
2023/04/09 07:10:49;;;;;;;;;;;;;;;-140.72;100.00;52835.25;5032140;28;19924;-78
2023/04/09 07:13:20;;;;;;;;;;;;;;;-140.72;100.00;52825.13;5026029;28;19918;-72
2023/04/09 07:15:45;;;;;;;;;;;;;;;-140.72;100.00;52831.19;5029027;28;19952;-71
2023/04/09 07:18:10;;;;;;;;;;;;;;;-140.72;100.00;52833.22;5028538;28;20416;-72
2023/04/09 07:20:35;;;;;;;;;;;;;;;-140.72;100.00;52825.13;5028111;28;19917;-72
2023/04/09 07:23:01;;;;;;;;;;;;;;;-140.72;100.00;52849.47;5026080;28;19925;-70
2023/04/09 07:25:27;;;;;;;;;;;;;;;-140.72;100.00;52821.06;5027482;28;20398;-71
2023/04/09 07:27:52;;;;;;;;;;;;;;;-140.72;100.00;52843.38;5027635;28;19928;-72
2023/04/09 07:30:17;;;;;;;;;;;;;;;-140.72;100.00;52845.41;5026298;28;19978;-70
2023/04/09 07:32:42;;;;;;;;;;;;;;;-140.72;100.00;52810.91;5033243;28;19953;-71
2023/04/09 07:35:08;;;;;;;;;;;;;;;-140.72;100.00;52812.94;5036481;27;19917;-72
2023/04/09 07:37:34;;;;;;;;;;;;;;;-140.72;100.00;52806.84;5031319;28;19928;-71
2023/04/09 07:39:59;;;;;;;;;;;;;;;-140.72;100.00;52825.13;5017898;28;20330;-71
2023/04/09 07:42:25;;;;;;;;;;;;;;;-140.72;100.00;52794.69;5023693;28;19962;-70
2023/04/09 07:44:51;;;;;;;;;;;;;;;-140.72;100.00;52817.00;5034568;28;19932;-72
2023/04/09 07:47:16;;;;;;;;;;;;;;;-140.72;100.00;52853.53;5037429;28;19917;-72
2023/04/09 07:49:41;;;;;;;;;;;;;;;-140.72;100.00;52790.63;5056625;28;19924;-71
2023/04/09 07:52:07;;;;;;;;;;;;;;;-140.72;100.00;52800.75;5053043;27;19921;-71
2023/04/09 07:54:32;;;;;;;;;;;;;;;-140.72;100.00;52808.88;5065391;27;19923;-72
2023/04/09 07:56:58;;;;;;;;;;;;;;;-140.72;100.00;52819.03;5084422;27;20373;-72
2023/04/09 07:59:26;;;;;;;;;;;;;;;-140.72;100.00;52798.72;5044548;27;19921;-72
2023/04/09 08:01:52;;;;;;;;;;;;;;;-140.72;100.00;52800.75;5027950;28;19970;-71
2023/04/09 08:04:17;;;;;;;;;;;;;;;-140.72;100.00;52837.28;5027623;28;19917;-71
2023/04/09 08:06:45;;;;;;;;;;;;;;;-140.72;100.00;52800.75;5039163;28;20350;-71
2023/04/09 08:09:10;;;;;;;;;;;;;;;-140.72;100.00;52833.22;5020225;28;19921;-71
2023/04/09 08:11:36;;;;;;;;;;;;;;;-140.72;100.00;52794.69;5028191;28;19917;-71
2023/04/09 08:14:02;;;;;;;;;;;;;;;-140.72;100.00;52778.44;5026058;28;19964;-71
2023/04/09 08:16:29;;;;;;;;;;;;;;;-140.72;100.00;52808.88;5022968;28;19988;-70
2023/04/09 08:18:55;;;;;;;;;;;;;;;-140.72;100.00;52823.09;5028800;28;19944;-71
2023/04/09 08:21:20;;;;;;;;;;;;;;;-140.72;100.00;52800.75;5015543;28;20000;-71
2023/04/09 08:23:45;;;;;;;;;;;;;;;-140.72;100.00;52825.13;5031832;28;20059;-72
2023/04/09 08:26:12;;;;;;;;;;;;;;;-140.72;100.00;52821.06;5032188;28;19928;-71
2023/04/09 08:28:37;;;;;;;;;;;;;;;-140.72;100.00;52804.81;5052503;27;19920;-71
2023/04/09 08:31:02;;;;;;;;;;;;;;;-140.72;100.00;52806.84;5052741;27;19928;-71
2023/04/09 08:33:28;;;;;;;;;;;;;;;-140.72;100.00;52810.91;5055627;27;20002;-71
2023/04/09 08:35:53;;;;;;;;;;;;;;;-140.72;100.00;52821.06;5036790;27;19918;-71
2023/04/09 08:38:18;;;;;;;;;;;;;;;-140.72;100.00;52798.72;5020564;28;19957;-71
2023/04/09 08:40:44;;;;;;;;;;;;;;;-140.72;100.00;52825.13;5018076;28;19924;-72
2023/04/09 08:43:13;;;;;;;;;;;;;;;-140.72;100.00;52810.91;5033268;28;19924;-71
2023/04/09 08:45:39;;;;;;;;;;;;;;;-140.72;100.00;52780.47;5014549;28;19928;-74
2023/04/09 08:48:07;;;;;;;;;;;;;;;-140.72;100.00;52804.81;5027246;28;20020;-72
2023/04/09 08:50:33;;;;;;;;;;;;;;;-140.72;100.00;52804.81;5023187;28;19921;-73
2023/04/09 08:53:01;;;;;;;;;;;;;;;-140.72;100.00;52780.47;5019625;28;20303;-71
2023/04/09 08:55:26;;;;;;;;;;;;;;;-140.72;100.00;52782.50;5029461;28;19917;-71
2023/04/09 08:57:51;;;;;;;;;;;;;;;-140.72;100.00;52776.41;5023396;28;19925;-70
2023/04/09 09:00:16;;;;;;;;;;;;;;;-140.72;100.00;52784.53;5040313;27;19924;-71
2023/04/09 09:03:01;;;;;;;;;;;;;;;-140.72;100.00;52784.53;5067260;27;19921;-72
2023/04/09 09:05:37;;;;;;;;;;;;;;;-140.72;100.00;52780.47;5073129;27;19917;-72
2023/04/09 09:08:07;;;;;;;;;;;;;;;-140.72;100.00;52780.47;5037289;27;19921;-72
2023/04/09 09:10:41;;;;;;;;;;;;;;;-140.72;100.00;52764.25;5045533;28;19922;-71
2023/04/09 09:16:13;;;;;;;;;;;;;;;-140.72;100.00;52784.53;5031180;28;19920;-72
2023/04/09 09:18:39;;;;;;;;;;;;;;;-140.72;100.00;52790.63;5021494;28;19921;-70
2023/04/09 09:21:11;;;;;;;;;;;;;;;-140.72;100.00;52762.22;5060875;27;19921;-71
2023/04/09 09:23:37;;;;;;;;;;;;;;;-140.72;100.00;52802.78;5086748;27;19919;-73
2023/04/09 09:26:17;;;;;;;;;;;;;;;-140.72;100.00;52802.78;5057538;27;19917;-74
2023/04/09 09:28:42;;;;;;;;;;;;;;;-140.72;100.00;52788.59;5040152;27;19928;-73
2023/04/09 09:31:08;;;;;;;;;;;;;;;-140.72;100.00;52764.25;5030764;28;19921;-73
2023/04/09 09:33:34;;;;;;;;;;;;;;;-140.72;100.00;52760.19;5021496;28;20426;-72
2023/04/09 09:36:02;;;;;;;;;;;;;;;-140.72;100.00;52754.09;5022841;28;20008;-70
2023/04/09 09:38:27;;;;;;;;;;;;;;;-140.72;100.00;52748.00;5025937;28;19921;-79
2023/04/09 09:40:52;;;;;;;;;;;;;;;-140.72;100.00;52748.00;5038882;28;20012;-72
2023/04/09 09:43:18;;;;;;;;;;;;;;;-140.72;100.00;52748.00;5028056;28;19918;-73
2023/04/09 09:45:45;;;;;;;;;;;;;;;-140.72;100.00;52745.97;5032823;28;20352;-72
2023/04/09 09:48:11;;;;;;;;;;;;;;;-140.72;100.00;52737.84;5029055;28;19928;-73
2023/04/09 09:50:38;;;;;;;;;;;;;;;-140.72;100.00;52717.56;5039996;28;20294;-73
2023/04/09 09:53:04;;;;;;;;;;;;;;;-140.72;100.00;52676.97;5022655;28;19929;-72
2023/04/09 09:55:31;;;;;;;;;;;;;;;-140.72;100.00;52687.13;5028296;28;20009;-74
2023/04/09 09:57:57;;;;;;;;;;;;;;;-140.72;100.00;52662.78;5028027;28;19917;-72
2023/04/09 10:00:24;;;;;;;;;;;;;;;-140.72;100.00;52650.59;5027268;28;19928;-73
2023/04/09 10:02:57;;;;;;;;;;;;;;;-140.72;100.00;52681.03;5044349;28;20369;-72
2023/04/09 10:05:25;;;;;;;;;;;;;;;-140.72;100.00;52632.34;5025321;28;19917;-73
2023/04/09 10:07:52;;;;;;;;;;;;;;;-140.72;100.00;52642.47;5025990;28;19928;-73
2023/04/09 10:10:17;;;;;;;;;;;;;;;-140.72;100.00;52634.38;5027469;28;19922;-72
2023/04/09 10:12:44;;;;;;;;;;;;;;;-140.72;100.00;52597.84;5030939;28;20337;-73
2023/04/09 10:15:09;;;;;;;;;;;;;;;-140.72;100.00;52601.91;5028430;28;19962;-71
2023/04/09 10:17:35;;;;;;;;;;;;;;;-140.72;100.00;52589.72;5025564;28;19925;-72
2023/04/09 10:20:06;;;;;;;;;;;;;;;-140.72;100.00;52650.59;5030428;28;20320;-73
2023/04/09 10:22:33;;;;;;;;;;;;;;;-140.72;100.00;52612.03;5029588;28;19925;-74
2023/04/09 10:24:59;;;;;;;;;;;;;;;-140.72;100.00;52612.03;5029278;28;19917;-73
2023/04/09 10:27:25;;;;;;;;;;;;;;;-140.72;100.00;52614.06;5021908;28;20062;-73
2023/04/09 10:29:51;;;;;;;;;;;;;;;-140.72;100.00;52612.03;5029754;28;20020;-72
2023/04/09 10:32:25;;;;;;;;;;;;;;;-140.72;100.00;52618.13;5027727;28;20031;-72
2023/04/09 10:34:50;;;;;;;;;;;;;;;-140.72;100.00;52668.84;5022930;28;20372;-71
2023/04/09 10:37:23;;;;;;;;;;;;;;;-140.72;100.00;52668.84;5025129;28;19924;-72
2023/04/09 10:39:49;;;;;;;;;;;;;;;-140.72;100.00;52650.59;5032027;28;19921;-73
2023/04/09 10:42:18;;;;;;;;;;;;;;;-140.72;100.00;52646.53;5023954;28;19980;-72
2023/04/09 10:44:43;;;;;;;;;;;;;;;-140.72;100.00;52626.25;5026015;28;19954;-73
2023/04/09 10:47:09;;;;;;;;;;;;;;;-140.72;100.00;52541.03;5014955;28;19925;-72
2023/04/09 10:49:39;;;;;;;;;;;;;;;-140.72;100.00;52559.28;5029447;28;19925;-72
2023/04/09 10:52:12;;;;;;;;;;;;;;;-140.72;100.00;52545.06;5028513;28;19917;-72
2023/04/09 10:54:47;;;;;;;;;;;;;;;-140.72;100.00;52524.78;5028981;28;20333;-72
2023/04/09 10:57:13;;;;;;;;;;;;;;;-140.72;74.80;52569.44;5021418;28;20356;-73
2023/04/09 10:59:40;;;;;;;;;;;;;;;-140.72;28.90;52577.53;5016211;28;19926;-72
2023/04/09 11:02:06;;;;;;;;;;;;;;;-140.72;3.16;52561.31;5019283;28;19921;-71
2023/04/09 11:04:55;;;;;;;;;;;;;;;-140.72;1.01;52536.97;5019438;28;19970;-73
2023/04/09 11:07:21;;;;;;;;;;;;;;;-140.72;0.00;52575.50;5041360;28;19929;-72
2023/04/09 11:09:46;;;;;;;;;;;;;;;-140.72;0.00;52435.50;5026614;28;20387;-73
2023/04/09 11:12:11;;;;;;;;;;;;;;;-140.72;0.00;52384.78;5028897;28;19936;-73
2023/04/09 11:14:36;;;;;;;;;;;;;;;-140.72;0.00;52390.84;5022462;28;19917;-73
2023/04/09 11:17:02;;;;;;;;;;;;;;;-140.72;0.00;52394.91;5025214;28;20019;-73
2023/04/09 11:19:27;;;;;;;;;;;;;;;-140.72;0.00;52433.47;5025393;28;19971;-77
2023/04/09 11:21:52;;;;;;;;;;;;;;;-140.72;0.00;52378.69;5015379;28;19922;-73
2023/04/09 11:24:18;;;;;;;;;;;;;;;-140.72;0.00;52388.84;5027263;28;20004;-72
2023/04/09 11:26:44;;;;;;;;;;;;;;;-140.72;0.00;52467.97;5028358;28;19917;-72
2023/04/09 11:29:10;;;;;;;;;;;;;;;-140.72;0.00;52293.47;5029779;28;19925;-72
2023/04/09 11:31:35;;;;;;;;;;;;;;;-140.72;0.00;52309.69;5029597;28;19924;-72
2023/04/09 11:34:01;;;;;;;;;;;;;;;-140.72;0.00;52346.22;5029040;28;20371;-71
2023/04/09 11:36:29;;;;;;;;;;;;;;;-140.72;0.00;52394.91;5023000;28;19924;-72
2023/04/09 11:38:55;;;;;;;;;;;;;;;-140.72;0.00;52240.72;5029391;28;19966;-72
2023/04/09 11:41:33;;;;;;;;;;;;;;;-140.72;0.00;52194.03;5031774;28;19917;-72
2023/04/09 11:44:00;;;;;;;;;;;;;;;-140.72;0.00;52163.59;5024377;28;19981;-72
2023/04/09 11:46:26;;;;;;;;;;;;;;;-140.72;0.00;52096.66;5034519;28;19924;-72
2023/04/09 11:48:52;;;;;;;;;;;;;;;-140.72;0.00;52088.53;5065737;27;19949;-72
2023/04/09 11:51:18;;;;;;;;;;;;;;;-140.72;0.00;52074.34;5027906;28;20011;-72
2023/04/09 11:53:43;;;;;;;;;;;;;;;-140.72;0.00;52033.75;5018802;28;19959;-72
2023/04/09 11:56:09;;;;;;;;;;;;;;;-140.72;0.00;52001.28;5030774;28;19916;-72
2023/04/09 11:58:34;;;;;;;;;;;;;;;-140.72;0.00;52045.94;5028102;28;19917;-72
2023/04/09 12:00:59;;;;;;;;;;;;;;;-140.72;0.00;52029.69;5033901;28;19974;-71
2023/04/09 12:03:26;;;;;;;;;;;;;;;-140.72;0.00;52295.50;5027568;28;20011;-72
2023/04/09 12:05:52;;;;;;;;;;;;;;;-140.72;0.00;52293.47;5031115;28;19925;-71
2023/04/09 12:08:21;;;;;;;;;;;;;;;-140.72;0.00;52311.72;5034256;28;19942;-73
2023/04/09 12:10:46;;;;;;;;;;;;;;;-140.72;0.00;52311.72;5028513;28;20067;-73
2023/04/09 12:13:12;;;;;;;;;;;;;;;-140.72;0.00;52289.41;5030744;28;19956;-71
2023/04/09 12:15:40;;;;;;;;;;;;;;;-140.72;0.00;52334.03;5029056;28;20371;-71
2023/04/09 12:18:09;;;;;;;;;;;;;;;-140.72;0.00;52285.34;5039148;27;19979;-73
2023/04/09 12:20:36;;;;;;;;;;;;;;;-140.72;0.00;52344.19;5029086;28;19924;-71
2023/04/09 12:23:03;;;;;;;;;;;;;;;-140.72;0.00;52342.16;5033615;28;19957;-72